Time;durP1;ratioP1;P1;durP2;ratioP2;P2;SDS_P1;SDS_P2;PMS_P1;PMS_P2;Temp;Humidity;BMP_temperature;BMP_pressure;BME280_temperature;BME280_humidity;BME280_pressure;Samples;Min_cycle;Max_cycle;Signal;HPM_P1;HPM_P2
2022/04/22 08:56:12;;;;;;;41.65;37.25;;;16.30;99.90;;;;;;5108949;22;20880;-81
2022/04/22 08:58:42;;;;;;;14.20;10.25;;;15.20;99.90;;;;;;5075766;28;20036;-78
2022/04/22 09:01:13;;;;;;;15.30;9.90;;;14.80;99.90;;;;;;5072193;28;20049;-82
2022/04/22 09:16:50;;;;;;;7.93;6.68;;;15.30;99.90;;;;;;5192866;22;20041;-84
2022/04/22 09:19:36;;;;;;;12.50;7.82;;;15.20;99.90;;;;;;5031729;28;20672;-87
2022/04/22 09:22:04;;;;;;;11.13;7.05;;;15.20;99.90;;;;;;5047325;28;20111;-86
2022/04/22 09:34:04;;;;;;;11.57;7.30;;;15.20;99.90;;;;;;4976906;23;20056;-88
2022/04/22 09:43:39;;;;;;;10.48;7.15;;;15.50;99.90;;;;;;4897772;28;20128;-82
2022/04/22 09:46:30;;;;;;;39.85;24.00;;;15.70;99.90;;;;;;4956518;28;20631;-88
2022/04/22 09:49:38;;;;;;;62.83;39.42;;;15.70;99.90;;;;;;4950363;28;20046;-88
2022/04/22 09:52:31;;;;;;;10.65;6.60;;;15.80;99.90;;;;;;4895253;29;20048;-85
2022/04/22 09:55:07;;;;;;;10.00;5.32;;;16.20;99.90;;;;;;4896280;29;20063;-87
2022/04/22 10:01:16;;;;;;;10.63;4.18;;;16.80;99.90;;;;;;4969626;28;20050;-83
2022/04/22 10:04:01;;;;;;;8.05;4.60;;;17.10;99.90;;;;;;4970638;28;20066;-83
2022/04/22 10:06:42;;;;;;;6.70;4.57;;;17.20;99.90;;;;;;4940603;29;20071;-82
2022/04/22 10:09:24;;;;;;;7.45;5.03;;;17.00;99.90;;;;;;4939080;29;20078;-83
2022/04/22 10:11:54;;;;;;;8.75;5.10;;;17.20;99.90;;;;;;4939461;29;20043;-85
2022/04/22 10:14:38;;;;;;;16.45;8.68;;;17.50;99.90;;;;;;4926066;28;20093;-86
2022/04/22 10:17:10;;;;;;;7.63;4.18;;;17.50;99.90;;;;;;4970247;28;20043;-82
2022/04/22 10:19:41;;;;;;;10.25;4.15;;;17.60;99.90;;;;;;4975528;28;20097;-86
2022/04/22 10:22:11;;;;;;;10.18;4.65;;;17.60;99.90;;;;;;4942768;28;20491;-88
2022/04/22 10:24:56;;;;;;;7.40;3.70;;;17.50;99.90;;;;;;4957817;28;20117;-90
2022/04/22 10:28:21;;;;;;;7.90;4.30;;;17.80;99.90;;;;;;4905490;28;20101;-84
2022/04/22 10:34:10;;;;;;;8.35;3.83;;;18.20;99.90;;;;;;5511359;23;20038;-82
2022/04/22 10:37:00;;;;;;;5.40;3.58;;;18.10;99.90;;;;;;4962749;28;20066;-87
2022/04/22 10:40:59;;;;;;;6.90;3.75;;;18.20;99.90;;;;;;4877127;29;20063;-84
2022/04/22 10:49:39;;;;;;;12.48;4.00;;;18.40;99.90;;;;;;4889517;29;20078;-82
2022/04/22 10:52:10;;;;;;;6.22;3.90;;;18.30;99.90;;;;;;4920526;29;20480;-80
2022/04/22 10:55:04;;;;;;;12.52;4.00;;;18.40;99.90;;;;;;4906648;29;20139;-85
2022/04/22 10:57:35;;;;;;;11.65;4.80;;;18.40;99.90;;;;;;4921530;29;20055;-89
2022/04/22 11:00:27;;;;;;;10.95;6.55;;;18.60;99.90;;;;;;4917995;29;20074;-92
2022/04/22 11:03:18;;;;;;;45.00;27.50;;;18.90;99.90;;;;;;4935070;29;20814;-85
2022/04/22 11:06:00;;;;;;;12.18;5.63;;;18.80;99.90;;;;;;4911793;29;20043;-82
2022/04/22 11:08:30;;;;;;;15.20;8.55;;;18.90;99.90;;;;;;4943066;29;20047;-86
2022/04/22 11:12:06;;;;;;;7.10;3.83;;;19.00;99.90;;;;;;4935355;28;20709;-91
2022/04/22 11:14:44;;;;;;;13.57;4.15;;;18.80;99.70;;;;;;4960153;28;20041;-83
2022/04/22 11:17:36;;;;;;;8.20;3.80;;;19.10;99.90;;;;;;4944193;28;20093;-82
2022/04/22 11:20:12;;;;;;;13.10;3.65;;;19.00;98.90;;;;;;4928548;28;20055;-83
2022/04/22 11:22:58;;;;;;;5.45;3.42;;;19.20;99.20;;;;;;4945670;28;20078;-86
2022/04/22 11:25:29;;;;;;;6.60;3.60;;;19.20;98.80;;;;;;4941101;28;20044;-84
2022/04/22 11:27:58;;;;;;;7.55;3.72;;;19.20;98.80;;;;;;4954181;28;20046;-82
2022/04/22 11:30:56;;;;;;;7.63;3.70;;;19.20;98.70;;;;;;4937548;29;20048;-86
2022/04/22 11:34:14;;;;;;;6.00;3.90;;;19.30;98.70;;;;;;4931996;29;20099;-83
2022/04/22 11:37:31;;;;;;;9.05;3.95;;;19.30;98.90;;;;;;4955223;28;20119;-86
2022/04/22 11:40:00;;;;;;;9.85;3.75;;;19.30;98.40;;;;;;4937997;29;20103;-80
2022/04/22 11:46:37;;;;;;;9.52;4.25;;;19.20;97.60;;;;;;4943485;29;20106;-85
2022/04/22 11:49:06;;;;;;;8.63;4.18;;;19.30;98.30;;;;;;4943560;29;20137;-83
2022/04/22 11:51:53;;;;;;;9.57;3.90;;;19.50;98.60;;;;;;4941036;29;20035;-81
2022/04/22 11:54:33;;;;;;;12.80;3.72;;;19.50;97.30;;;;;;4942522;29;20422;-88
2022/04/22 12:05:55;;;;;;;8.80;3.50;;;19.70;96.90;;;;;;4846088;29;20107;-85
2022/04/22 12:09:01;;;;;;;15.57;8.35;;;19.70;96.10;;;;;;4871630;29;20184;-80
2022/04/22 12:11:29;;;;;;;20.30;14.07;;;19.70;96.50;;;;;;4913570;29;20405;-83
2022/04/22 12:14:25;;;;;;;7.40;3.72;;;19.70;95.60;;;;;;4873219;29;20134;-84
2022/04/22 12:16:59;;;;;;;7.40;3.55;;;19.60;95.60;;;;;;4899811;29;20086;-78
2022/04/22 12:19:31;;;;;;;;;;;19.60;95.20;;;;;;4888977;29;20500;-88
2022/04/22 12:22:04;;;;;;;6.80;3.75;;;19.90;95.60;;;;;;4914355;29;20384;-83
2022/04/22 12:24:37;;;;;;;11.23;3.90;;;19.80;94.80;;;;;;4913038;29;20047;-86
2022/04/22 12:27:24;;;;;;;12.38;3.90;;;19.90;95.60;;;;;;4901216;29;20502;-86
2022/04/22 12:30:05;;;;;;;8.48;4.10;;;19.90;94.20;;;;;;4905876;29;20460;-80
2022/04/22 12:32:33;;;;;;;8.00;3.85;;;19.80;94.70;;;;;;4895851;29;20115;-89
2022/04/22 12:35:17;;;;;;;6.10;3.60;;;19.90;94.80;;;;;;4889348;29;20059;-86
2022/04/22 12:38:24;;;;;;;9.13;3.90;;;20.10;94.40;;;;;;4888085;29;20051;-86
2022/04/22 12:41:02;;;;;;;6.68;3.55;;;20.40;93.50;;;;;;4874842;29;20044;-83
2022/04/22 13:04:52;;;;;;;11.18;5.30;;;20.40;91.30;;;;;;4934709;29;20063;-86
2022/04/22 13:08:27;;;;;;;6.70;4.38;;;20.60;91.50;;;;;;4897201;29;20445;-86
2022/04/22 13:23:50;;;;;;;6.70;3.58;;;21.00;88.70;;;;;;4809989;29;20083;-87
2022/04/22 13:27:00;;;;;;;8.15;4.72;;;21.00;87.20;;;;;;4973579;23;20078;-80
2022/04/22 13:29:27;;;;;;;11.13;6.47;;;20.70;87.20;;;;;;4945406;28;20050;-83
2022/04/22 13:31:54;;;;;;;12.77;3.97;;;21.20;87.30;;;;;;4961254;28;20066;-77
2022/04/22 13:34:41;;;;;;;8.65;4.30;;;21.90;82.50;;;;;;4962238;28;20442;-87
2022/04/22 13:40:30;;;;;;;6.85;3.88;;;23.30;72.60;;;;;;5147405;23;20055;-85
2022/04/22 13:52:28;;;;;;;;;;;21.80;76.80;;;;;;5380051;23;20070;-78
2022/04/22 13:55:18;;;;;;;6.43;3.63;;;21.40;77.80;;;;;;4890054;29;19931;-80
2022/04/22 13:58:11;;;;;;;7.10;3.90;;;20.60;81.10;;;;;;4887852;29;20043;-82
2022/04/22 14:01:02;;;;;;;8.45;4.28;;;19.90;84.60;;;;;;4878992;29;20105;-85
2022/04/22 14:03:32;;;;;;;6.25;3.80;;;19.70;87.70;;;;;;4904169;29;20064;-86
2022/04/22 14:06:03;;;;;;;6.47;4.05;;;19.60;88.30;;;;;;4882470;29;20432;-87
2022/04/22 14:11:47;;;;;;;6.20;3.78;;;19.70;87.10;;;;;;4902944;29;20079;-78
2022/04/22 14:14:28;;;;;;;5.30;3.63;;;19.60;89.00;;;;;;4888727;29;20480;-84
2022/04/22 14:17:34;;;;;;;7.78;3.70;;;19.60;90.10;;;;;;4849087;29;20077;-83
2022/04/22 14:20:14;;;;;;;7.88;3.75;;;20.00;88.60;;;;;;4833981;29;20081;-83
2022/04/22 14:22:44;;;;;;;7.57;3.72;;;19.50;90.10;;;;;;4832447;29;20150;-82
2022/04/22 14:25:11;;;;;;;6.47;2.90;;;20.20;87.90;;;;;;4828600;29;20042;-89
2022/04/22 14:27:44;;;;;;;6.82;3.42;;;20.20;87.30;;;;;;4846907;29;20049;-83
2022/04/22 14:30:17;;;;;;;7.88;3.92;;;20.30;87.30;;;;;;4829092;29;20057;-85
2022/04/22 14:32:58;;;;;;;8.85;3.90;;;20.20;87.40;;;;;;4807991;29;20141;-82
2022/04/22 14:35:49;;;;;;;5.13;3.30;;;19.80;89.40;;;;;;4812570;29;20599;-83
2022/04/22 14:38:24;;;;;;;7.88;3.95;;;19.50;90.70;;;;;;4819246;29;20051;-86
2022/04/22 14:41:24;;;;;;;7.50;3.70;;;19.40;91.60;;;;;;4831289;29;20059;-85
2022/04/22 14:44:37;;;;;;;;;;;;;;;;;;;;;
2022/04/22 14:48:01;;;;;;;10.75;4.35;;;19.40;92.00;;;;;;5095152;23;20482;-79
2022/04/22 14:55:22;;;;;;;7.88;4.25;;;19.60;91.40;;;;;;4927267;29;20095;-83
2022/04/22 14:58:06;;;;;;;8.68;3.35;;;19.20;92.00;;;;;;4897489;29;20092;-80
2022/04/22 15:01:26;;;;;;;7.68;3.50;;;19.40;91.40;;;;;;4859916;29;20113;-86
2022/04/22 15:04:35;;;;;;;7.72;4.40;;;19.90;90.60;;;;;;4886069;29;20063;-83
2022/04/22 15:07:07;;;;;;;14.57;3.63;;;19.60;90.90;;;;;;4893160;29;20046;-83
2022/04/22 15:12:44;;;;;;;10.35;4.78;;;19.30;92.30;;;;;;4907561;29;20036;-82
2022/04/22 15:31:49;;;;;;;6.82;3.75;;;19.40;93.00;;;;;;1478419;23;20047;-81
2022/04/22 15:34:50;;;;;;;6.00;3.83;;;19.00;94.90;;;;;;5048786;23;20053;-82
2022/04/22 15:37:19;;;;;;;7.75;3.58;;;18.80;95.80;;;;;;4899709;29;20029;-84
2022/04/22 15:39:58;;;;;;;11.38;4.32;;;18.80;95.80;;;;;;4887129;29;20488;-83
2022/04/22 15:42:25;;;;;;;8.15;3.67;;;18.70;96.50;;;;;;4899309;29;20425;-81
2022/04/22 15:44:59;;;;;;;6.20;3.65;;;18.60;96.90;;;;;;4891707;29;20047;-84
2022/04/22 15:47:39;;;;;;;6.95;4.10;;;18.80;96.80;;;;;;4867828;29;20045;-80
2022/04/22 15:50:07;;;;;;;6.18;4.15;;;18.90;96.20;;;;;;4899556;29;20080;-82
2022/04/22 15:52:43;;;;;;;10.35;5.78;;;18.60;97.30;;;;;;4878714;29;20049;-80
2022/04/22 15:55:31;;;;;;;7.25;4.10;;;18.50;98.10;;;;;;4871877;29;20410;-81
2022/04/22 15:58:36;;;;;;;7.53;3.50;;;18.90;97.20;;;;;;4883514;29;20114;-84
2022/04/22 16:01:21;;;;;;;10.98;4.65;;;19.00;96.80;;;;;;4867236;29;20524;-82
2022/04/22 16:03:56;;;;;;;8.02;3.85;;;18.90;97.10;;;;;;4883935;29;20029;-81
2022/04/22 16:06:24;;;;;;;8.30;4.05;;;19.10;96.70;;;;;;4862965;29;20067;-79
2022/04/22 16:08:58;;;;;;;6.80;3.72;;;19.10;96.40;;;;;;4884431;29;20143;-80
2022/04/22 16:17:14;;;;;;;25.08;10.77;;;18.90;97.40;;;;;;4884806;29;20143;-81
2022/04/22 16:19:55;;;;;;;6.35;4.07;;;18.80;98.00;;;;;;4884009;29;20443;-83
2022/04/22 16:22:39;;;;;;;9.27;4.05;;;18.80;98.10;;;;;;4892899;29;20061;-85
2022/04/22 16:25:44;;;;;;;7.53;3.78;;;18.80;98.30;;;;;;4880716;29;20053;-84
2022/04/22 16:28:17;;;;;;;6.78;3.60;;;18.60;98.90;;;;;;4801184;29;20230;-85
2022/04/22 16:33:40;;;;;;;8.85;3.90;;;18.60;99.40;;;;;;5107992;23;20048;-83
2022/04/22 16:36:09;;;;;;;6.88;4.00;;;18.60;99.60;;;;;;4887460;29;20042;-83
2022/04/22 16:38:36;;;;;;;9.32;4.28;;;18.40;99.90;;;;;;4891124;29;20047;-90
2022/04/22 16:41:35;;;;;;;7.78;3.50;;;18.40;99.90;;;;;;4906524;29;20063;-81
2022/04/22 16:44:03;;;;;;;12.52;5.82;;;18.40;99.90;;;;;;4889338;29;20063;-81
2022/04/22 16:46:32;;;;;;;8.55;3.83;;;18.20;99.90;;;;;;4906641;29;20066;-83
2022/04/22 16:49:01;;;;;;;6.57;4.40;;;18.00;99.90;;;;;;4904762;29;20063;-79
2022/04/22 16:51:28;;;;;;;9.40;4.28;;;17.90;99.90;;;;;;4904965;29;20121;-85
2022/04/22 16:53:56;;;;;;;6.10;4.18;;;17.80;99.90;;;;;;4892136;29;20102;-82
2022/04/22 16:56:24;;;;;;;5.97;4.00;;;17.80;99.90;;;;;;4890086;29;20044;-82
2022/04/22 16:59:02;;;;;;;5.55;4.00;;;17.80;99.90;;;;;;4889921;29;20170;-80
2022/04/22 17:01:36;;;;;;;9.70;4.55;;;17.60;99.90;;;;;;4909025;29;20058;-82
2022/04/22 17:04:04;;;;;;;7.68;4.53;;;17.40;99.90;;;;;;4906189;29;20032;-76
2022/04/22 17:10:29;;;;;;;9.50;4.50;;;17.30;99.90;;;;;;4962539;23;20184;-85
2022/04/22 17:23:05;;;;;;;9.37;4.80;;;17.00;99.90;;;;;;5658905;23;20636;-81
2022/04/22 17:25:46;;;;;;;7.40;4.70;;;16.90;99.90;;;;;;4908994;29;20043;-82
2022/04/22 17:28:16;;;;;;;10.77;4.70;;;16.80;99.90;;;;;;4890058;29;20408;-82
2022/04/22 17:30:51;;;;;;;9.60;5.00;;;16.80;99.90;;;;;;4892348;29;20051;-83
2022/04/22 17:33:22;;;;;;;6.30;4.60;;;16.70;99.90;;;;;;4891699;29;20048;-82
2022/04/22 17:35:50;;;;;;;8.30;5.30;;;16.70;99.90;;;;;;4905910;29;20044;-81
2022/04/22 17:38:17;;;;;;;10.27;5.40;;;16.60;99.90;;;;;;4909248;29;20036;-82
2022/04/22 17:40:45;;;;;;;8.95;6.03;;;16.60;99.90;;;;;;4926140;29;20115;-84
2022/04/22 17:43:13;;;;;;;12.07;5.03;;;16.60;99.90;;;;;;4925652;29;20065;-81
2022/04/22 17:49:28;;;;;;;6.20;4.65;;;16.50;99.90;;;;;;4884306;29;20032;-84
2022/04/22 17:51:56;;;;;;;10.35;5.15;;;16.50;99.90;;;;;;4906660;29;20079;-81
2022/04/22 17:54:27;;;;;;;6.72;4.78;;;16.40;99.90;;;;;;4892978;29;20076;-85
2022/04/22 17:57:18;;;;;;;9.07;5.15;;;16.40;99.90;;;;;;4904927;29;20040;-83
2022/04/22 17:59:52;;;;;;;7.40;4.57;;;16.30;99.90;;;;;;4924971;29;20500;-82
2022/04/22 18:02:26;;;;;;;7.68;4.80;;;16.40;99.90;;;;;;4908535;29;20036;-80
2022/04/22 18:05:06;;;;;;;10.35;5.28;;;16.30;99.90;;;;;;4893426;29;20134;-81
2022/04/22 18:07:43;;;;;;;7.20;4.55;;;16.30;99.90;;;;;;4908090;29;20102;-84
2022/04/22 18:10:13;;;;;;;8.82;4.95;;;16.30;99.90;;;;;;4905412;29;20044;-86
2022/04/22 18:12:41;;;;;;;10.43;5.32;;;16.30;99.90;;;;;;4907021;29;20421;-83
2022/04/22 18:18:03;;;;;;;9.00;5.20;;;16.20;99.90;;;;;;4907480;29;20038;-82
2022/04/22 18:21:10;;;;;;;10.05;5.55;;;16.10;99.90;;;;;;4885446;29;20052;-84
2022/04/22 18:23:38;;;;;;;6.35;4.60;;;16.10;99.90;;;;;;4907523;29;20378;-83
2022/04/22 18:26:16;;;;;;;9.63;5.07;;;16.10;99.90;;;;;;4892753;29;20060;-80
2022/04/22 18:28:54;;;;;;;21.63;13.27;;;16.00;99.90;;;;;;4907509;29;20031;-83
2022/04/22 18:32:29;;;;;;;;;;;;;;;;;;;;;
2022/04/22 18:35:41;;;;;;;8.20;4.93;;;16.00;99.90;;;;;;4904857;29;20068;-78
2022/04/22 18:38:09;;;;;;;6.40;4.75;;;16.00;99.90;;;;;;4923871;29;20051;-78
2022/04/22 18:40:36;;;;;;;7.90;4.88;;;15.90;99.90;;;;;;4925319;29;20047;-78
2022/04/22 18:43:07;;;;;;;6.72;4.70;;;15.90;99.90;;;;;;4924404;29;20051;-79
2022/04/22 18:48:54;;;;;;;7.45;4.30;;;15.90;99.90;;;;;;5331464;23;20056;-78
2022/04/22 18:51:26;;;;;;;7.57;4.75;;;16.00;99.90;;;;;;4892904;29;20091;-79
2022/04/22 18:54:18;;;;;;;9.25;5.70;;;15.90;99.90;;;;;;4922228;29;20048;-79
2022/04/22 18:56:46;;;;;;;7.70;4.97;;;15.90;99.90;;;;;;4922048;29;20431;-78
2022/04/22 18:59:14;;;;;;;8.13;5.95;;;15.90;99.90;;;;;;4904978;29;20451;-80
2022/04/22 19:01:41;;;;;;;7.88;5.00;;;15.80;99.90;;;;;;4924013;29;20089;-79
2022/04/22 19:04:09;;;;;;;10.40;5.20;;;15.80;99.90;;;;;;4925588;29;20042;-78
2022/04/22 19:06:36;;;;;;;8.25;4.90;;;15.80;99.90;;;;;;4922668;29;20044;-77
2022/04/22 19:09:03;;;;;;;7.70;4.82;;;15.80;99.90;;;;;;4921044;29;20068;-78
2022/04/22 19:11:34;;;;;;;8.68;5.20;;;15.90;99.90;;;;;;4892530;29;20051;-77
2022/04/22 19:14:02;;;;;;;6.53;4.88;;;15.90;99.90;;;;;;4907487;29;20063;-80
2022/04/22 19:16:29;;;;;;;11.27;4.75;;;15.80;99.90;;;;;;4891892;29;20056;-79
2022/04/22 19:18:57;;;;;;;5.90;4.18;;;15.80;99.90;;;;;;4923239;29;20052;-78
2022/04/22 19:21:24;;;;;;;6.28;5.05;;;15.80;99.90;;;;;;4920041;29;20074;-81
2022/04/22 19:23:55;;;;;;;6.65;4.85;;;15.80;99.90;;;;;;4907294;29;20411;-82
2022/04/22 19:26:22;;;;;;;7.82;4.93;;;15.70;99.90;;;;;;4901825;29;20136;-82
2022/04/22 19:28:52;;;;;;;6.90;4.60;;;15.70;99.90;;;;;;4885074;29;20393;-79
2022/04/22 19:31:26;;;;;;;6.93;4.88;;;15.70;99.90;;;;;;4907100;29;20040;-80
2022/04/22 19:33:54;;;;;;;10.05;4.88;;;15.70;99.90;;;;;;4902115;29;20502;-82
2022/04/22 19:41:59;;;;;;;8.85;5.07;;;15.60;99.90;;;;;;4921894;29;20464;-79
2022/04/22 19:44:33;;;;;;;9.43;4.82;;;15.60;99.90;;;;;;4921229;29;20058;-80
2022/04/22 19:47:01;;;;;;;8.23;4.68;;;15.40;99.90;;;;;;4888219;29;20131;-80
2022/04/22 19:49:32;;;;;;;13.43;5.78;;;15.50;99.90;;;;;;4903970;29;20052;-86
2022/04/22 19:51:59;;;;;;;11.52;6.32;;;15.50;99.90;;;;;;4899717;29;20062;-77
2022/04/22 19:54:31;;;;;;;29.35;19.80;;;15.50;99.90;;;;;;4918417;29;20064;-78
2022/04/22 19:57:00;;;;;;;12.30;8.73;;;15.40;99.90;;;;;;4911722;29;20055;-79
2022/04/22 19:59:27;;;;;;;86.53;48.67;;;15.30;99.90;;;;;;4901845;29;20056;-80
2022/04/22 20:02:48;;;;;;;;;;;;;;;;;;;;;
2022/04/22 20:14:08;;;;;;;;;;;15.60;99.90;;;;;;4900214;29;20044;-78
2022/04/22 20:16:36;;;;;;;7.65;4.88;;;15.50;99.90;;;;;;4904008;29;19923;-81
2022/04/22 20:19:29;;;;;;;8.32;5.47;;;15.40;99.90;;;;;;4885845;29;20452;-81
2022/04/22 20:22:03;;;;;;;8.50;4.80;;;15.50;99.90;;;;;;4897979;29;20058;-82
2022/04/22 20:28:49;;;;;;;8.93;4.90;;;15.30;99.90;;;;;;4864833;29;20408;-79
2022/04/22 20:31:28;;;;;;;36.75;22.15;;;15.30;99.90;;;;;;5061916;23;20147;-81
2022/04/22 20:50:26;;;;;;;6.30;4.88;;;15.30;99.90;;;;;;5926628;23;20350;-84
2022/04/22 20:57:52;;;;;;;9.77;5.47;;;15.30;99.90;;;;;;4918147;29;20027;-84
2022/04/22 21:12:10;;;;;;;11.20;5.18;;;15.10;99.90;;;;;;4821905;27;20041;-84
2022/04/22 21:20:36;;;;;;;9.48;5.70;;;15.20;99.90;;;;;;5411988;23;20045;-81
2022/04/22 21:23:06;;;;;;;8.73;5.70;;;15.10;99.90;;;;;;4885966;29;20770;-82
2022/04/22 21:26:26;;;;;;;8.93;5.82;;;15.10;99.90;;;;;;4900309;29;20483;-83
2022/04/22 21:28:53;;;;;;;10.32;6.25;;;14.90;99.90;;;;;;4901246;29;20036;-84
2022/04/22 21:32:28;;;;;;;;;;;;;;;;;;;;;
2022/04/22 21:35:10;;;;;;;10.07;6.28;;;14.80;99.90;;;;;;4898695;29;20095;-82
2022/04/22 21:37:43;;;;;;;13.05;8.18;;;14.80;99.90;;;;;;4881079;29;20382;-81
2022/04/22 21:40:13;;;;;;;29.92;18.02;;;14.80;99.90;;;;;;4898803;29;20109;-83
2022/04/22 21:43:04;;;;;;;65.85;42.85;;;14.90;99.90;;;;;;4900585;29;20443;-86
2022/04/22 21:45:32;;;;;;;12.55;9.82;;;14.90;99.90;;;;;;4902112;29;20040;-80
2022/04/22 21:48:00;;;;;;;10.48;7.03;;;14.90;99.90;;;;;;4885880;29;20083;-84
2022/04/22 21:50:33;;;;;;;13.32;7.38;;;14.80;99.90;;;;;;4898023;29;20044;-86
2022/04/22 21:53:02;;;;;;;12.63;7.22;;;14.80;99.90;;;;;;4903807;29;20067;-88
2022/04/22 21:55:33;;;;;;;10.13;6.25;;;14.80;99.90;;;;;;4893674;29;20408;-86
2022/04/22 21:58:05;;;;;;;9.75;6.35;;;14.60;99.90;;;;;;4902316;29;20052;-86
2022/04/22 22:00:50;;;;;;;12.35;6.63;;;14.50;99.90;;;;;;4884692;29;20761;-80
2022/04/22 22:03:20;;;;;;;10.77;6.70;;;14.50;99.90;;;;;;4911232;29;20123;-86
2022/04/22 22:05:49;;;;;;;9.88;6.57;;;14.50;99.90;;;;;;4903139;29;20056;-81
2022/04/22 22:08:18;;;;;;;193.63;113.22;;;14.50;99.90;;;;;;4899683;29;20041;-81
2022/04/22 22:11:10;;;;;;;85.38;52.58;;;14.50;99.90;;;;;;4900866;29;20067;-78
2022/04/22 22:13:39;;;;;;;90.05;57.35;;;14.40;99.90;;;;;;4907994;29;20135;-85
2022/04/22 22:16:11;;;;;;;15.55;11.05;;;14.40;99.90;;;;;;4904392;29;20143;-85
2022/04/22 22:22:53;;;;;;;9.70;6.38;;;14.30;99.90;;;;;;4846816;29;20716;-82
2022/04/22 22:25:21;;;;;;;10.68;8.20;;;14.40;99.90;;;;;;4847684;29;20053;-80
2022/04/22 22:27:59;;;;;;;15.85;9.80;;;14.10;99.90;;;;;;4881532;29;20055;-80
2022/04/22 22:30:27;;;;;;;12.93;7.97;;;14.20;99.90;;;;;;4899315;29;20044;-80
2022/04/22 22:33:04;;;;;;;14.05;7.97;;;14.20;99.90;;;;;;4888236;29;20112;-84
2022/04/22 22:35:32;;;;;;;11.52;7.10;;;14.20;99.90;;;;;;4901704;29;20072;-83
2022/04/22 22:37:59;;;;;;;13.73;8.00;;;14.20;99.90;;;;;;4905358;29;20461;-80
2022/04/22 22:40:27;;;;;;;14.50;7.65;;;14.20;99.90;;;;;;4906780;29;20040;-83
2022/04/22 22:43:22;;;;;;;11.68;8.57;;;14.20;99.90;;;;;;4882759;29;20048;-87
2022/04/22 22:45:56;;;;;;;14.70;8.50;;;14.10;99.90;;;;;;4883995;29;20057;-84
2022/04/22 22:48:32;;;;;;;12.95;8.07;;;14.00;99.90;;;;;;4905723;29;20041;-85
2022/04/22 22:51:03;;;;;;;10.57;7.80;;;14.00;99.90;;;;;;4901327;29;20049;-80
2022/04/22 22:53:55;;;;;;;13.52;8.13;;;13.90;99.90;;;;;;4901821;29;20033;-79
2022/04/22 22:56:25;;;;;;;12.80;9.20;;;13.90;99.90;;;;;;4894868;29;20153;-82
2022/04/22 22:58:52;;;;;;;14.55;10.23;;;13.90;99.90;;;;;;4905308;29;20311;-79
2022/04/22 23:01:22;;;;;;;13.07;9.63;;;13.90;99.90;;;;;;4899045;29;20039;-82
2022/04/22 23:04:10;;;;;;;14.95;9.77;;;13.90;99.90;;;;;;4890999;29;20415;-81
2022/04/22 23:10:51;;;;;;;123.53;72.38;;;13.80;99.90;;;;;;4904621;29;20419;-83
2022/04/22 23:13:24;;;;;;;21.83;13.70;;;14.00;99.90;;;;;;4902184;29;20045;-84
2022/04/22 23:16:39;;;;;;;16.30;9.82;;;13.80;99.90;;;;;;4892359;29;20167;-86
2022/04/22 23:19:10;;;;;;;13.57;8.77;;;13.40;99.90;;;;;;4892828;29;20047;-84
2022/04/22 23:21:38;;;;;;;14.57;9.57;;;13.60;99.90;;;;;;4902739;29;20053;-88
2022/04/22 23:24:07;;;;;;;14.95;10.05;;;13.60;99.90;;;;;;4905133;29;20044;-84
2022/04/22 23:26:37;;;;;;;15.15;9.93;;;13.40;99.90;;;;;;4903137;29;20068;-89
2022/04/22 23:29:05;;;;;;;18.58;10.60;;;13.50;99.90;;;;;;4931043;23;20087;-85
2022/04/22 23:31:32;;;;;;;15.90;9.60;;;13.40;99.90;;;;;;4903210;23;20044;-83
2022/04/22 23:34:19;;;;;;;13.27;9.68;;;13.40;99.90;;;;;;4889637;29;20052;-82
2022/04/22 23:37:14;;;;;;;14.95;9.27;;;13.50;99.90;;;;;;4873770;29;20254;-84
2022/04/22 23:39:41;;;;;;;17.10;11.38;;;13.60;99.90;;;;;;4888304;29;20060;-82
2022/04/22 23:42:22;;;;;;;17.25;9.70;;;13.60;99.90;;;;;;4883867;29;20492;-84
2022/04/22 23:44:52;;;;;;;11.13;7.82;;;13.40;99.90;;;;;;4873376;29;20064;-85
2022/04/22 23:47:51;;;;;;;14.13;7.63;;;13.50;99.90;;;;;;4887835;29;20040;-85
2022/04/22 23:50:21;;;;;;;12.75;8.25;;;13.70;99.90;;;;;;4899452;29;20048;-83
2022/04/22 23:52:51;;;;;;;14.98;8.18;;;13.80;99.90;;;;;;4893400;29;20511;-84
2022/04/22 23:55:45;;;;;;;10.60;7.47;;;13.80;99.90;;;;;;4887783;29;20052;-84
2022/04/22 23:58:21;;;;;;;15.38;9.13;;;13.70;99.90;;;;;;4887278;29;20396;-85
